Time;durP1;ratioP1;P1;durP2;ratioP2;P2;SDS_P1;SDS_P2;PMS_P1;PMS_P2;Temp;Humidity;BMP_temperature;BMP_pressure;BME280_temperature;BME280_humidity;BME280_pressure;Samples;Min_cycle;Max_cycle;Signal;HPM_P1;HPM_P2
2022/12/05 00:04:35;;;;;;;8.30;6.57;;;;;;;16.43;48.10;96389.53;10467195;28;20037;-29
2022/12/05 00:09:36;;;;;;;9.10;6.43;;;;;;;16.44;47.74;96363.44;10478409;28;20035;-29
2022/12/05 00:14:36;;;;;;;7.63;6.43;;;;;;;16.45;47.79;96362.59;10465047;28;20054;-29
2022/12/05 00:19:38;;;;;;;7.75;6.40;;;;;;;16.43;47.78;96369.31;10465978;28;20021;-29
2022/12/05 00:24:39;;;;;;;7.45;6.20;;;;;;;16.46;47.92;96381.94;10471803;28;20108;-29
2022/12/05 00:29:39;;;;;;;7.18;5.40;;;;;;;16.47;47.31;96376.09;10474961;28;20550;-28
2022/12/05 00:34:39;;;;;;;9.47;6.13;;;;;;;16.46;47.41;96381.94;10469367;28;20041;-29
2022/12/05 00:39:40;;;;;;;7.97;5.97;;;;;;;16.48;47.42;96392.94;10475756;28;20434;-29
2022/12/05 00:44:40;;;;;;;6.50;5.23;;;;;;;16.46;47.18;96384.47;10471719;28;20091;-29
2022/12/05 00:49:40;;;;;;;6.88;5.82;;;;;;;16.44;47.51;96388.69;10467230;28;20632;-29
2022/12/05 00:54:41;;;;;;;6.20;5.03;;;;;;;16.43;46.87;96393.72;10474189;28;20768;-29
2022/12/05 00:59:41;;;;;;;6.47;5.17;;;;;;;16.44;47.43;96391.22;10467837;28;20406;-29
2022/12/05 01:04:41;;;;;;;7.17;5.67;;;;;;;16.42;47.53;96397.09;10467454;28;20037;-28
2022/12/05 01:09:42;;;;;;;5.53;4.93;;;;;;;16.38;47.95;96391.19;10477735;28;20380;-29
2022/12/05 01:14:42;;;;;;;5.97;4.83;;;;;;;16.39;46.65;96392.91;10467720;28;20028;-29
2022/12/05 01:19:42;;;;;;;5.97;4.90;;;;;;;16.48;46.87;96423.25;10465222;28;20036;-29
2022/12/05 01:24:43;;;;;;;6.50;5.00;;;;;;;16.46;47.64;96424.06;10470136;28;20466;-28
2022/12/05 01:29:43;;;;;;;5.87;5.17;;;;;;;16.40;47.49;96435.00;10474745;28;20397;-29
2022/12/05 01:34:44;;;;;;;5.73;5.07;;;;;;;16.35;47.45;96441.69;10473831;28;20041;-29
2022/12/05 01:39:44;;;;;;;5.13;4.60;;;;;;;16.34;47.71;96455.16;10474977;28;20275;-31
2022/12/05 01:44:47;;;;;;;5.10;4.28;;;;;;;16.33;47.30;96458.53;10470492;28;20294;-29
2022/12/05 01:49:48;;;;;;;6.05;4.00;;;;;;;16.36;47.55;96456.00;10466828;28;20085;-29
2022/12/05 01:54:53;;;;;;;5.90;4.45;;;;;;;16.38;46.82;96449.28;10473837;28;20082;-29
2022/12/05 02:00:00;;;;;;;4.25;3.72;;;;;;;16.39;46.84;96458.59;10469342;28;20025;-29
2022/12/05 02:05:06;;;;;;;7.30;4.03;;;;;;;16.41;46.85;96448.47;10467072;28;20041;-29
2022/12/05 02:10:07;;;;;;;4.95;3.95;;;;;;;16.42;46.58;96451.00;10478378;28;20090;-29
2022/12/05 02:15:13;;;;;;;5.90;3.88;;;;;;;16.44;46.83;96451.84;10471692;28;20561;-29
2022/12/05 02:20:39;;;;;;;3.33;3.03;;;;;;;16.43;46.96;96460.28;10490383;28;20427;-29
2022/12/05 02:26:14;;;;;;;4.63;3.53;;;;;;;16.46;46.53;96447.66;10470321;28;20048;-29
2022/12/05 02:31:43;;;;;;;3.13;2.83;;;;;;;16.46;46.95;96450.16;10476967;28;20032;-29
2022/12/05 02:37:27;;;;;;;3.42;3.00;;;;;;;16.39;47.12;96438.38;10475453;28;20037;-29
2022/12/05 02:42:44;;;;;;;3.17;2.80;;;;;;;16.37;47.17;96429.94;10469709;28;20029;-29
2022/12/05 02:47:50;;;;;;;3.25;2.95;;;;;;;16.34;47.16;96437.47;10474715;28;20032;-29
2022/12/05 02:52:55;;;;;;;2.85;2.63;;;;;;;16.33;47.64;96439.97;10473673;28;20060;-29
2022/12/05 02:58:00;;;;;;;3.22;2.83;;;;;;;16.30;47.49;96438.28;10472901;28;20032;-29
2022/12/05 03:03:01;;;;;;;2.95;2.63;;;;;;;16.31;47.69;96445.06;10474552;28;20045;-29
2022/12/05 03:08:05;;;;;;;3.10;2.80;;;;;;;16.31;47.20;96451.78;10473946;28;20044;-29
2022/12/05 03:13:12;;;;;;;4.10;3.15;;;;;;;16.29;47.56;96456.81;10470743;28;20028;-28
2022/12/05 03:18:44;;;;;;;3.17;2.88;;;;;;;16.30;47.25;96453.44;10472173;28;20041;-29
2022/12/05 03:23:58;;;;;;;2.97;2.63;;;;;;;16.33;47.42;96453.47;10476108;28;20049;-29
2022/12/05 03:29:01;;;;;;;2.45;2.25;;;;;;;16.29;47.58;96449.22;10477076;28;20037;-29
2022/12/05 03:34:06;;;;;;;2.30;2.10;;;;;;;16.38;46.94;96451.81;10472020;28;20032;-29
2022/12/05 03:39:20;;;;;;;2.50;2.30;;;;;;;16.40;47.34;96445.13;10478370;28;20078;-29
2022/12/05 03:44:33;;;;;;;3.15;2.35;;;;;;;16.44;47.30;96451.84;10473837;28;20033;-31
2022/12/05 03:49:40;;;;;;;2.60;2.40;;;;;;;16.46;47.29;96455.22;10473241;28;20025;-29
2022/12/05 03:54:45;;;;;;;2.72;2.47;;;;;;;16.44;47.50;96456.91;10471708;28;20047;-29
2022/12/05 03:59:53;;;;;;;2.20;2.00;;;;;;;16.46;47.41;96460.28;10477666;28;20020;-29
2022/12/05 04:05:01;;;;;;;4.00;2.67;;;;;;;16.47;47.89;96473.78;10480206;28;20047;-28
2022/12/05 04:10:15;;;;;;;2.45;2.25;;;;;;;16.46;47.84;96489.78;10474586;28;20083;-29
2022/12/05 04:15:23;;;;;;;2.75;2.53;;;;;;;16.41;47.71;96489.75;10468726;28;20034;-29
2022/12/05 04:26:12;;;;;;;2.78;2.47;;;;;;;16.41;48.28;96506.56;10471155;28;20037;-29
2022/12/05 04:31:23;;;;;;;2.60;2.20;;;;;;;16.38;48.42;96492.25;10473563;28;20535;-29
2022/12/05 04:36:42;;;;;;;3.00;2.35;;;;;;;16.37;48.35;96510.78;10467584;28;20040;-29
2022/12/05 04:41:59;;;;;;;3.25;2.40;;;;;;;16.34;48.39;96500.63;10471817;28;20093;-29
2022/12/05 04:47:02;;;;;;;2.50;2.30;;;;;;;16.40;48.57;96504.91;10469280;28;20043;-29
2022/12/05 04:52:07;;;;;;;3.50;2.60;;;;;;;16.45;48.75;96505.78;10466091;28;20028;-29
2022/12/05 04:57:23;;;;;;;3.42;2.35;;;;;;;16.50;47.97;96510.00;10466173;28;20021;-29
2022/12/05 05:02:40;;;;;;;2.75;2.10;;;;;;;16.51;47.80;96499.06;10468615;28;20029;-28
2022/12/05 05:07:46;;;;;;;3.00;2.58;;;;;;;16.52;48.00;96515.91;10468852;28;20040;-29
2022/12/05 05:12:46;;;;;;;3.50;2.80;;;;;;;16.53;47.76;96504.94;10478827;28;20067;-29
2022/12/05 05:17:47;;;;;;;4.40;2.63;;;;;;;16.46;47.92;96503.22;10464512;28;20766;-28
2022/12/05 05:22:51;;;;;;;2.57;2.27;;;;;;;16.54;47.88;96531.06;10472097;28;20629;-28
2022/12/05 05:27:54;;;;;;;6.78;3.67;;;;;;;16.56;48.26;96537.84;10469542;28;20044;-29
2022/12/05 05:32:54;;;;;;;4.97;3.10;;;;;;;16.61;48.37;96551.31;10471424;28;20511;-29
2022/12/05 05:37:55;;;;;;;7.73;3.00;;;;;;;16.61;48.56;96551.31;10460730;28;20021;-29
2022/12/05 05:42:55;;;;;;;4.00;3.30;;;;;;;16.60;48.39;96561.44;10474876;28;20765;-29
2022/12/05 05:47:56;;;;;;;6.97;3.23;;;;;;;16.58;49.10;96558.03;10482888;28;20035;-29
2022/12/05 05:52:56;;;;;;;8.90;3.30;;;;;;;16.51;49.62;96572.34;10479356;28;20040;-30
2022/12/05 05:57:56;;;;;;;6.87;3.40;;;;;;;16.51;49.37;96563.91;10471698;28;20781;-29
2022/12/05 06:02:57;;;;;;;10.77;4.73;;;;;;;16.64;50.00;96585.88;10477484;28;20396;-29
2022/12/05 06:07:57;;;;;;;12.70;4.30;;;;;;;16.66;49.91;96595.16;10472932;28;20279;-29
2022/12/05 06:12:59;;;;;;;12.23;4.63;;;;;;;16.69;50.05;96620.44;10483898;28;20059;-31
2022/12/05 06:17:59;;;;;;;13.18;5.60;;;;;;;16.65;51.18;96623.81;10472598;28;20032;-30
2022/12/05 06:23:00;;;;;;;34.15;5.70;;;;;;;16.66;50.51;96625.50;10484903;28;20035;-30
2022/12/05 06:28:00;;;;;;;21.13;7.80;;;;;;;16.62;51.89;96622.94;10484472;28;20037;-29
2022/12/05 06:33:00;;;;;;;8.97;4.70;;;;;;;16.36;48.94;96630.31;10491059;28;20028;-29
2022/12/05 06:38:01;;;;;;;7.17;4.27;;;;;;;16.44;48.97;96638.81;10482091;28;20033;-29
2022/12/05 06:43:01;;;;;;;11.80;4.97;;;;;;;16.44;48.90;96633.78;10477900;28;20040;-29
2022/12/05 06:48:01;;;;;;;11.30;3.83;;;;;;;16.50;49.27;96628.78;10469741;28;20101;-31
2022/12/05 06:53:02;;;;;;;9.30;3.85;;;;;;;16.51;48.97;96630.44;10471928;28;20040;-30
2022/12/05 06:58:02;;;;;;;8.48;4.80;;;;;;;16.52;50.14;96629.63;10476810;28;20051;-30
2022/12/05 07:03:03;;;;;;;7.80;4.30;;;;;;;16.52;49.82;96636.38;10472633;28;20586;-29
2022/12/05 07:08:03;;;;;;;13.37;4.80;;;;;;;16.51;50.20;96625.41;10477105;28;20290;-30
2022/12/05 07:13:03;;;;;;;9.52;4.35;;;;;;;16.52;49.94;96622.03;10471431;28;20067;-29
2022/12/05 07:18:04;;;;;;;8.80;5.90;;;;;;;16.56;50.93;96643.13;10477558;28;20396;-30
2022/12/05 07:23:04;;;;;;;6.57;4.30;;;;;;;16.57;51.69;96670.94;10474557;28;20306;-31
2022/12/05 07:28:05;;;;;;;8.60;4.77;;;;;;;16.59;50.44;96649.03;10468510;28;20358;-30
2022/12/05 07:33:06;;;;;;;5.68;3.97;;;;;;;16.58;50.07;96652.41;10478569;28;20040;-30
2022/12/05 07:38:06;;;;;;;8.10;4.13;;;;;;;16.56;50.21;96661.66;10479975;28;20032;-30
2022/12/05 07:43:07;;;;;;;6.93;3.47;;;;;;;16.58;50.43;96671.75;10472287;28;20037;-30
2022/12/05 07:48:07;;;;;;;7.23;4.47;;;;;;;16.58;50.67;96676.81;10471078;28;20396;-31
2022/12/05 07:53:07;;;;;;;7.37;3.70;;;;;;;16.57;50.12;96685.25;10470830;28;20377;-29
2022/12/05 07:58:08;;;;;;;8.07;4.13;;;;;;;16.56;50.53;96688.59;10478283;28;20037;-30
2022/12/05 08:03:08;;;;;;;7.43;4.13;;;;;;;16.54;50.50;96686.06;10472982;28;20037;-29
2022/12/05 08:08:09;;;;;;;5.33;3.93;;;;;;;16.53;50.72;96699.53;10474821;28;20347;-30
2022/12/05 08:13:09;;;;;;;6.20;3.92;;;;;;;16.52;50.92;96699.53;10470440;28;20395;-29
2022/12/05 08:18:09;;;;;;;7.33;3.90;;;;;;;16.50;50.82;96704.56;10467852;28;20032;-30
2022/12/05 08:23:10;;;;;;;5.00;3.00;;;;;;;16.48;50.97;96716.38;10472811;28;20507;-30
2022/12/05 08:28:10;;;;;;;6.43;3.63;;;;;;;16.47;51.04;96698.66;10470296;28;20446;-28
2022/12/05 08:33:10;;;;;;;6.40;3.73;;;;;;;16.48;51.67;96691.09;10467492;28;20279;-30
2022/12/05 08:38:11;;;;;;;6.13;3.30;;;;;;;16.48;51.80;96703.72;10476721;28;20281;-29
2022/12/05 08:43:11;;;;;;;6.72;3.75;;;;;;;16.48;51.41;96706.25;10472823;28;20487;-29
2022/12/05 08:48:12;;;;;;;5.75;3.70;;;;;;;16.46;51.58;96712.94;10468721;28;20043;-30
2022/12/05 08:53:13;;;;;;;6.00;3.27;;;;;;;16.44;51.36;96709.56;10468228;28;20044;-31
2022/12/05 08:58:13;;;;;;;5.30;4.35;;;;;;;16.45;51.46;96710.44;10470056;28;20125;-30
2022/12/05 09:03:13;;;;;;;7.07;3.72;;;;;;;16.43;51.76;96738.22;10470106;28;20036;-31
2022/12/05 09:08:14;;;;;;;5.63;3.53;;;;;;;16.42;51.64;96739.03;10473716;28;20414;-29
2022/12/05 09:13:14;;;;;;;7.23;3.57;;;;;;;16.44;51.48;96747.47;10468824;28;20541;-30
2022/12/05 09:18:15;;;;;;;7.67;3.57;;;;;;;16.45;51.34;96741.59;10477101;28;20396;-30
2022/12/05 09:23:15;;;;;;;4.03;3.07;;;;;;;16.46;51.45;96745.81;10479234;28;20352;-29
2022/12/05 09:28:15;;;;;;;5.97;3.40;;;;;;;16.43;51.44;96757.56;10474012;28;20040;-31
2022/12/05 09:33:16;;;;;;;5.07;2.90;;;;;;;16.46;50.56;96771.06;10478437;28;20036;-30
2022/12/05 09:38:16;;;;;;;4.23;2.90;;;;;;;16.49;51.12;96767.72;10485951;28;20037;-31
2022/12/05 09:43:52;;;;;;;4.80;3.43;;;;;;;16.42;50.48;96759.25;10479337;28;20024;-29
2022/12/05 09:48:53;;;;;;;5.10;3.25;;;;;;;16.50;51.24;96767.75;10473815;28;20822;-29
2022/12/05 09:53:54;;;;;;;4.15;3.35;;;;;;;16.52;51.52;96773.66;10474680;28;20025;-30
2022/12/05 09:58:56;;;;;;;4.32;2.97;;;;;;;16.54;51.32;96766.94;10476505;28;20028;-29
2022/12/05 10:04:21;;;;;;;5.60;3.42;;;;;;;16.58;51.01;96773.72;10477473;28;20040;-30
2022/12/05 10:09:47;;;;;;;5.18;3.33;;;;;;;16.58;50.58;96778.78;10478414;28;20663;-29
2022/12/05 10:15:11;;;;;;;4.22;2.65;;;;;;;16.58;50.72;96773.72;10480357;28;20028;-29
2022/12/05 10:20:24;;;;;;;3.85;2.97;;;;;;;16.58;50.43;96766.13;10474719;28;20556;-29
2022/12/05 10:25:28;;;;;;;3.60;3.05;;;;;;;16.57;50.71;96766.97;10478938;28;20040;-29
2022/12/05 10:30:34;;;;;;;3.75;2.85;;;;;;;16.58;50.56;96772.84;10482526;28;20505;-30
2022/12/05 10:35:37;;;;;;;4.53;3.75;;;;;;;16.48;50.29;96751.75;10471213;28;20114;-29
2022/12/05 10:40:43;;;;;;;3.60;2.67;;;;;;;16.56;50.59;96760.22;10480268;28;20032;-30
2022/12/05 10:45:46;;;;;;;4.53;2.90;;;;;;;16.57;50.72;96766.97;10478481;28;20041;-28
2022/12/05 10:50:53;;;;;;;3.10;2.40;;;;;;;16.58;50.36;96755.16;10471914;28;20028;-29
2022/12/05 10:55:54;;;;;;;4.10;3.17;;;;;;;16.58;50.64;96745.06;10479048;28;20028;-29
2022/12/05 11:01:07;;;;;;;4.15;3.00;;;;;;;16.58;50.50;96748.44;10478423;28;20025;-31
2022/12/05 11:06:37;;;;;;;5.40;3.50;;;;;;;16.60;51.61;96746.78;10481257;28;20039;-30
2022/12/05 11:11:37;;;;;;;3.63;3.10;;;;;;;16.60;51.03;96751.81;10463389;28;20037;-30
2022/12/05 11:16:38;;;;;;;5.38;3.30;;;;;;;16.60;50.97;96746.78;10479097;28;20024;-29
2022/12/05 11:21:42;;;;;;;10.40;5.63;;;;;;;16.61;50.62;96743.41;10472881;28;20037;-30
2022/12/05 11:26:44;;;;;;;7.30;4.32;;;;;;;16.64;50.82;96745.13;10469529;28;20303;-30
2022/12/05 11:31:50;;;;;;;4.95;3.60;;;;;;;16.64;51.01;96742.59;10475096;28;20037;-29
2022/12/05 11:37:00;;;;;;;4.87;3.07;;;;;;;16.64;50.59;96728.28;10473213;28;20472;-29
2022/12/05 11:42:14;;;;;;;5.85;3.72;;;;;;;16.65;50.66;96724.91;10477479;28;20435;-30
2022/12/05 11:47:53;;;;;;;4.38;3.13;;;;;;;16.67;50.85;96730.81;10470593;28;20123;-29
2022/12/05 11:53:04;;;;;;;7.82;3.10;;;;;;;16.64;51.47;96728.28;10471045;28;20475;-29
2022/12/05 11:58:07;;;;;;;6.78;3.72;;;;;;;16.67;51.17;96724.91;10471877;28;20033;-29
2022/12/05 12:03:11;;;;;;;8.07;4.63;;;;;;;16.67;52.26;96728.28;10476836;28;20496;-30
2022/12/05 12:08:23;;;;;;;7.40;4.80;;;;;;;16.74;51.58;96730.84;10470759;28;20045;-30
2022/12/05 12:13:43;;;;;;;8.63;5.38;;;;;;;16.69;53.46;96726.59;10487935;28;20423;-29
2022/12/05 12:19:22;;;;;;;12.52;6.38;;;;;;;16.74;52.31;96737.63;10480725;28;20028;-31
2022/12/05 12:25:02;;;;;;;10.20;6.05;;;;;;;16.79;51.51;96738.47;10382127;28;20849;-29
2022/12/05 12:30:16;;;;;;;15.75;7.15;;;;;;;16.76;51.99;96741.00;10489901;28;20036;-30
2022/12/05 12:35:48;;;;;;;13.80;7.20;;;;;;;16.78;52.23;96736.78;10464704;28;20392;-30
2022/12/05 12:40:52;;;;;;;12.30;6.70;;;;;;;16.76;52.00;96738.47;10468472;28;20037;-29
2022/12/05 12:46:03;;;;;;;13.10;6.93;;;;;;;16.67;52.10;96720.72;10473190;28;20107;-30
2022/12/05 12:51:03;;;;;;;12.35;7.47;;;;;;;16.76;51.82;96741.00;10473182;28;20045;-30
2022/12/05 12:56:26;;;;;;;13.52;6.80;;;;;;;16.77;51.93;96735.09;10473928;28;20032;-30
2022/12/05 13:01:39;;;;;;;10.45;6.70;;;;;;;16.74;52.33;96730.03;10470214;28;20530;-29
2022/12/05 13:06:53;;;;;;;11.98;7.05;;;;;;;16.72;52.85;96730.84;10471203;28;20028;-30
2022/12/05 13:11:56;;;;;;;15.75;7.82;;;;;;;16.73;52.75;96729.16;10474281;28;20539;-29
2022/12/05 13:16:58;;;;;;;11.30;5.80;;;;;;;16.72;52.75;96726.66;10475976;28;20369;-29
2022/12/05 13:21:59;;;;;;;15.48;6.93;;;;;;;16.75;52.71;96734.25;10470334;28;20659;-29
2022/12/05 13:27:04;;;;;;;14.68;7.85;;;;;;;16.74;52.50;96735.09;10466451;28;20036;-29
2022/12/05 13:32:21;;;;;;;14.30;6.90;;;;;;;16.77;52.88;96724.97;10472875;28;20391;-30
2022/12/05 13:42:59;;;;;;;16.17;8.10;;;;;;;16.74;53.87;96730.03;10475709;28;20029;-30
2022/12/05 13:47:59;;;;;;;15.80;8.65;;;;;;;16.73;53.89;96727.47;10470105;28;20149;-30
2022/12/05 13:53:04;;;;;;;44.07;8.67;;;;;;;16.79;53.28;96741.00;10474956;28;20117;-30
2022/12/05 13:58:23;;;;;;;17.08;8.20;;;;;;;16.75;53.91;96744.34;10468838;28;20683;-30
2022/12/05 14:03:23;;;;;;;23.88;10.00;;;;;;;16.73;55.44;96737.59;10469483;28;20048;-30
2022/12/05 14:08:30;;;;;;;15.85;7.65;;;;;;;16.75;55.35;96737.59;10482695;28;20047;-29
2022/12/05 14:13:32;;;;;;;16.52;8.70;;;;;;;16.75;54.20;96735.06;10479853;28;20033;-29
2022/12/05 14:18:48;;;;;;;19.85;8.27;;;;;;;16.73;53.57;96738.44;10471363;28;20068;-30
2022/12/05 14:24:09;;;;;;;19.58;8.57;;;;;;;16.74;54.79;96747.72;10480287;28;20056;-30
2022/12/05 14:29:28;;;;;;;17.15;8.27;;;;;;;16.78;53.13;96744.38;10481264;28;20678;-30
2022/12/05 14:34:30;;;;;;;18.85;8.85;;;;;;;16.75;54.82;96741.81;10471887;28;20393;-29
2022/12/05 14:39:43;;;;;;;18.88;9.40;;;;;;;16.81;54.91;96745.25;10478103;28;20059;-29
2022/12/05 14:44:49;;;;;;;18.58;8.82;;;;;;;16.66;55.13;96724.06;10471904;28;20060;-30
2022/12/05 14:49:56;;;;;;;21.25;9.23;;;;;;;16.76;55.46;96746.03;10472076;28;20131;-30
2022/12/05 14:55:02;;;;;;;16.15;8.18;;;;;;;16.71;55.49;96736.75;10480759;28;20067;-30
2022/12/05 15:00:05;;;;;;;21.80;8.57;;;;;;;16.79;53.99;96743.53;10476868;28;20503;-30
2022/12/05 15:05:32;;;;;;;16.17;7.43;;;;;;;16.80;53.35;96755.34;10471658;28;20086;-30
2022/12/05 15:10:38;;;;;;;13.83;7.20;;;;;;;16.79;53.98;96753.63;10479472;28;20042;-30
2022/12/05 15:15:43;;;;;;;21.00;7.43;;;;;;;16.76;53.74;96748.56;10481169;28;20528;-30
2022/12/05 15:21:08;;;;;;;13.82;6.70;;;;;;;16.77;53.66;96762.06;10472962;28;20124;-29
2022/12/05 15:26:22;;;;;;;13.82;6.43;;;;;;;16.74;54.92;96770.47;10484049;28;20033;-30
2022/12/05 15:31:26;;;;;;;17.65;7.70;;;;;;;16.73;55.85;96773.84;10467930;28;20049;-30
2022/12/05 15:36:32;;;;;;;23.75;7.85;;;;;;;16.77;55.42;96780.59;10477227;28;20518;-30
2022/12/05 15:41:33;;;;;;;23.43;9.20;;;;;;;16.81;54.85;96778.09;10477908;28;20021;-31
2022/12/05 15:46:35;;;;;;;19.02;9.73;;;;;;;16.82;55.33;96779.78;10476340;28;20052;-30
2022/12/05 15:51:37;;;;;;;20.60;8.98;;;;;;;16.84;55.02;96782.34;10472604;28;20040;-32
2022/12/05 15:56:44;;;;;;;18.90;7.80;;;;;;;16.86;54.97;96780.66;10476015;28;20044;-30
2022/12/05 16:01:51;;;;;;;27.67;9.57;;;;;;;16.88;56.12;96789.09;10472569;28;20032;-29
2022/12/05 16:06:54;;;;;;;29.10;9.57;;;;;;;17.02;56.23;96787.53;10471885;28;20033;-30
2022/12/05 16:11:58;;;;;;;23.55;9.23;;;;;;;16.98;55.69;96790.88;10476306;28;20051;-30
2022/12/05 16:17:01;;;;;;;17.55;8.48;;;;;;;16.93;55.36;96775.69;10467438;28;20037;-29
2022/12/05 16:22:20;;;;;;;21.83;8.20;;;;;;;16.96;54.86;96792.53;10471610;28;20032;-30
2022/12/05 16:27:25;;;;;;;23.52;8.43;;;;;;;17.00;55.45;96797.63;10469082;28;20107;-31
2022/12/05 16:32:25;;;;;;;22.42;9.13;;;;;;;17.00;55.05;96796.78;10473291;28;20036;-30
2022/12/05 16:37:27;;;;;;;31.38;12.43;;;;;;;17.13;54.92;96806.13;10484562;28;20033;-30
2022/12/05 16:42:29;;;;;;;32.92;10.38;;;;;;;17.21;54.80;96809.56;10475945;28;20044;-30
2022/12/05 16:47:54;;;;;;;38.05;12.32;;;;;;;17.21;55.66;96809.56;10479474;28;20032;-30
2022/12/05 16:53:06;;;;;;;24.58;11.75;;;;;;;17.23;55.41;96802.84;10470666;28;20039;-29
2022/12/05 16:58:11;;;;;;;38.28;13.10;;;;;;;17.25;54.57;96808.75;10475126;28;20025;-30
2022/12/05 17:03:13;;;;;;;27.15;10.80;;;;;;;17.25;55.55;96801.19;10476489;28;20637;-29
2022/12/05 17:08:13;;;;;;;30.38;11.20;;;;;;;17.26;55.98;96815.50;10471847;28;20033;-30
2022/12/05 17:13:15;;;;;;;34.13;12.67;;;;;;;17.24;56.77;96820.56;10474024;28;20040;-30
2022/12/05 17:18:20;;;;;;;29.63;12.88;;;;;;;17.29;55.74;96823.13;10476179;28;20287;-30
2022/12/05 17:23:20;;;;;;;25.67;10.95;;;;;;;17.40;56.32;96813.94;10469229;28;20480;-30
2022/12/05 17:28:21;;;;;;;34.80;11.90;;;;;;;17.35;55.96;96826.56;10479520;28;20036;-30
2022/12/05 17:33:22;;;;;;;30.08;12.65;;;;;;;17.44;56.11;96830.84;10469101;28;20309;-30
2022/12/05 17:38:22;;;;;;;33.17;14.33;;;;;;;17.35;57.32;96833.28;10474541;28;20050;-30
2022/12/05 17:43:23;;;;;;;28.50;15.25;;;;;;;17.31;57.10;96826.53;10478990;28;20078;-31
2022/12/05 17:48:25;;;;;;;33.17;16.27;;;;;;;17.27;56.80;96827.31;10482538;28;20032;-30
2022/12/05 17:53:25;;;;;;;33.60;16.25;;;;;;;17.18;57.24;96817.16;10480478;28;20585;-31
2022/12/05 17:58:25;;;;;;;32.50;16.33;;;;;;;17.13;56.94;96816.25;10478494;28;20103;-30
2022/12/05 18:03:26;;;;;;;30.47;16.43;;;;;;;17.19;56.66;96822.22;10477368;28;20037;-30
2022/12/05 18:08:27;;;;;;;38.50;19.25;;;;;;;17.17;56.92;96828.94;10477962;28;20040;-30
2022/12/05 18:13:27;;;;;;;24.50;13.18;;;;;;;17.17;54.92;96823.06;10475314;28;20033;-30
2022/12/05 18:18:28;;;;;;;36.47;20.07;;;;;;;17.15;56.57;96827.25;10474115;28;20041;-30
2022/12/05 18:23:29;;;;;;;30.45;17.33;;;;;;;17.09;55.64;96814.56;10477742;28;20033;-28
2022/12/05 18:28:29;;;;;;;31.70;18.85;;;;;;;17.17;56.22;96828.09;10476903;28;20033;-28
2022/12/05 18:33:30;;;;;;;36.13;18.80;;;;;;;17.21;55.59;96837.41;10479884;28;20029;-29
2022/12/05 18:38:31;;;;;;;30.55;20.10;;;;;;;17.21;56.33;96840.78;10476096;28;20152;-29
2022/12/05 18:43:31;;;;;;;54.72;29.58;;;;;;;17.22;58.78;96846.69;10467798;28;20044;-30
2022/12/05 18:48:34;;;;;;;43.90;24.63;;;;;;;17.21;57.49;96844.97;10462805;28;20028;-29
2022/12/05 18:53:34;;;;;;;40.70;23.05;;;;;;;17.19;56.86;96851.72;10474114;28;20514;-30
2022/12/05 18:58:35;;;;;;;42.53;24.13;;;;;;;17.19;56.88;96836.53;10486056;28;20038;-29
2022/12/05 19:03:37;;;;;;;32.10;21.08;;;;;;;17.06;55.40;96844.91;10470599;28;20049;-30
2022/12/05 19:08:37;;;;;;;45.17;27.40;;;;;;;17.14;57.11;96856.75;10477241;28;20040;-29
2022/12/05 19:13:38;;;;;;;37.88;24.95;;;;;;;17.10;57.12;96854.19;10470026;28;20033;-30
2022/12/05 19:18:39;;;;;;;43.40;23.17;;;;;;;17.10;56.74;96846.59;10474432;28;20055;-29
2022/12/05 19:23:40;;;;;;;43.55;26.90;;;;;;;16.76;57.21;96854.75;10481015;28;20399;-30
2022/12/05 19:28:40;;;;;;;45.03;25.17;;;;;;;16.67;58.22;96854.69;10477760;28;20043;-29
2022/12/05 19:33:43;;;;;;;41.67;25.92;;;;;;;16.61;59.07;96862.19;10467643;28;20036;-29
2022/12/05 19:38:45;;;;;;;37.58;25.88;;;;;;;16.57;59.88;96874.78;10468826;28;21321;-30
2022/12/05 19:43:46;;;;;;;38.17;26.70;;;;;;;16.54;59.99;96868.03;10482000;28;20040;-29
2022/12/05 19:48:47;;;;;;;43.13;25.40;;;;;;;16.52;60.56;96872.22;10464962;28;20574;-29
2022/12/05 19:53:47;;;;;;;46.53;26.58;;;;;;;16.52;60.45;96873.91;10477682;28;20405;-29
2022/12/05 19:58:51;;;;;;;39.78;24.63;;;;;;;16.48;60.00;96878.09;10466189;28;20470;-29
2022/12/05 20:03:56;;;;;;;38.28;24.58;;;;;;;16.52;59.52;96874.75;10474433;28;20423;-30
2022/12/05 20:08:57;;;;;;;37.85;23.58;;;;;;;16.54;59.80;96873.06;10475993;28;20107;-29
2022/12/05 20:14:00;;;;;;;36.83;25.02;;;;;;;16.56;60.22;96873.97;10470450;28;20036;-29
2022/12/05 20:19:01;;;;;;;33.47;23.10;;;;;;;16.54;59.96;96873.06;10465834;28;20028;-29
2022/12/05 20:24:04;;;;;;;38.13;24.45;;;;;;;16.55;59.89;96862.13;10471278;28;20062;-28
2022/12/05 20:29:05;;;;;;;33.60;23.02;;;;;;;16.62;59.78;96871.47;10467325;28;20049;-29
2022/12/05 20:34:07;;;;;;;33.47;22.75;;;;;;;16.59;59.22;96856.28;10472469;28;20063;-29
2022/12/05 20:39:12;;;;;;;38.10;23.35;;;;;;;16.67;59.77;96866.44;10478590;28;20029;-29
2022/12/05 20:44:14;;;;;;;32.42;21.55;;;;;;;16.68;59.98;96861.41;10469353;28;20033;-29
2022/12/05 20:49:14;;;;;;;29.58;22.63;;;;;;;16.67;59.50;96868.16;10467191;28;20060;-29
2022/12/05 20:54:18;;;;;;;35.10;22.20;;;;;;;16.64;60.89;96864.78;10479471;28;20033;-29
2022/12/05 20:59:18;;;;;;;29.48;22.48;;;;;;;16.60;60.64;96867.25;10466866;28;20314;-30
2022/12/05 21:04:19;;;;;;;29.30;21.53;;;;;;;16.67;60.18;96868.97;10470374;28;20602;-30
2022/12/05 21:09:27;;;;;;;28.65;21.77;;;;;;;16.70;60.18;96862.28;10472975;28;20302;-29
2022/12/05 21:14:27;;;;;;;26.80;19.90;;;;;;;16.73;60.51;96854.75;10486511;28;20032;-30
2022/12/05 21:19:29;;;;;;;29.48;21.02;;;;;;;16.75;60.38;96853.91;10483554;28;20500;-29
2022/12/05 21:24:29;;;;;;;27.07;20.57;;;;;;;16.79;59.81;96860.69;10487271;28;20044;-29
2022/12/05 21:29:29;;;;;;;28.80;19.10;;;;;;;16.77;60.23;96850.56;10492752;28;20041;-29
2022/12/05 21:34:30;;;;;;;25.37;17.67;;;;;;;16.71;60.71;96860.63;10485662;28;20039;-30
2022/12/05 21:39:30;;;;;;;26.90;18.33;;;;;;;16.76;60.39;96854.75;10485908;28;20116;-30
2022/12/05 21:44:30;;;;;;;26.27;17.87;;;;;;;16.71;61.00;96860.63;10480865;28;20610;-29
2022/12/05 21:49:31;;;;;;;21.30;16.50;;;;;;;16.75;61.17;96855.59;10485019;28;20511;-29
2022/12/05 21:54:31;;;;;;;26.73;17.50;;;;;;;16.75;61.08;96850.53;10485009;28;20033;-30
2022/12/05 21:59:32;;;;;;;26.80;17.63;;;;;;;16.56;60.62;96814.97;10493723;28;20427;-30
2022/12/05 22:04:32;;;;;;;22.00;16.75;;;;;;;16.55;61.66;96823.38;10485120;28;20403;-30
2022/12/05 22:09:32;;;;;;;25.90;17.13;;;;;;;16.70;61.81;96852.16;10485584;28;20123;-29
2022/12/05 22:14:33;;;;;;;24.30;14.80;;;;;;;16.70;61.38;96848.81;10488558;28;20305;-29
2022/12/05 22:19:33;;;;;;;24.57;15.77;;;;;;;16.70;61.42;96854.69;10486351;28;20037;-29
2022/12/05 22:24:33;;;;;;;21.13;14.97;;;;;;;16.69;61.59;96844.59;10480948;28;20290;-29
2022/12/05 22:29:34;;;;;;;24.20;14.93;;;;;;;16.71;61.23;96846.28;10478499;28;20021;-29
2022/12/05 22:34:34;;;;;;;21.00;14.63;;;;;;;16.69;61.36;96842.88;10477006;28;20040;-31
2022/12/05 22:39:35;;;;;;;22.10;14.30;;;;;;;16.69;60.69;96834.47;10478035;28;20037;-29
2022/12/05 22:44:35;;;;;;;25.57;15.93;;;;;;;16.70;60.95;96838.69;10474849;28;20295;-30
2022/12/05 22:49:36;;;;;;;20.23;13.07;;;;;;;16.69;60.91;96842.88;10477418;28;20044;-29
2022/12/05 22:54:36;;;;;;;18.77;13.93;;;;;;;16.69;60.81;96832.78;10477457;28;20054;-29
2022/12/05 22:59:36;;;;;;;18.60;13.23;;;;;;;16.70;60.78;96826.88;10474013;28;20388;-29
2022/12/05 23:04:37;;;;;;;20.50;13.53;;;;;;;16.70;60.67;96824.34;10474954;28;20298;-33
2022/12/05 23:09:37;;;;;;;16.97;12.57;;;;;;;16.70;60.45;96829.41;10467886;28;20037;-29
2022/12/05 23:14:37;;;;;;;16.30;12.63;;;;;;;16.70;60.74;96815.94;10477218;28;20298;-29
2022/12/05 23:19:38;;;;;;;23.03;13.87;;;;;;;16.67;60.77;96809.19;10469578;28;20276;-29
2022/12/05 23:24:38;;;;;;;16.93;12.10;;;;;;;16.67;60.75;96818.44;10476399;28;20345;-30
2022/12/05 23:29:39;;;;;;;18.90;11.43;;;;;;;16.67;60.45;96799.88;10479294;28;20809;-29
2022/12/05 23:34:39;;;;;;;23.95;12.40;;;;;;;16.69;60.36;96801.63;10473509;28;20302;-30
2022/12/05 23:39:39;;;;;;;20.47;13.17;;;;;;;16.69;59.85;96802.44;10480447;28;20044;-29